createdAt,value
2023-05-16T07:03:45.412Z,98355.19
2023-05-16T07:12:21.375Z,98354.00
2023-05-16T07:18:52.589Z,98353.22
2023-05-16T07:26:09.952Z,98356.28
2023-05-16T07:28:37.413Z,98361.28
2023-05-16T07:34:45.105Z,98355.25
2023-05-16T07:42:03.071Z,98358.19
2023-05-16T07:44:31.475Z,98358.38
2023-05-16T07:46:59.200Z,98363.22
2023-05-16T07:53:30.506Z,98372.06
2023-05-16T07:55:58.033Z,98364.09
2023-05-16T07:58:25.552Z,98368.91
2023-05-16T08:00:53.007Z,98361.06
2023-05-16T08:10:13.615Z,98377.03
2023-05-16T08:20:56.033Z,98389.91
2023-05-16T08:30:09.921Z,98407.34
2023-05-16T08:39:10.801Z,98401.06
2023-05-16T08:47:39.437Z,98418.91
2023-05-16T08:55:23.151Z,98408.28
2023-05-16T09:05:03.322Z,98424.31
2023-05-16T09:12:35.614Z,98415.53
2023-05-16T09:15:07.292Z,98410.38
2023-05-16T09:17:46.796Z,98421.59
2023-05-16T09:23:11.765Z,98420.09
2023-05-16T09:25:41.745Z,98422.38
2023-05-16T09:28:12.495Z,98430.03
2023-05-16T09:30:39.952Z,98424.19
2023-05-16T09:33:08.331Z,98428.84
2023-05-16T09:35:44.919Z,98435.25
2023-05-16T09:38:18.099Z,98424.72
2023-05-16T09:40:46.748Z,98430.94
2023-05-16T09:43:17.860Z,98425.72
2023-05-16T09:45:49.857Z,98429.22
2023-05-16T09:48:18.465Z,98439.69
2023-05-16T09:50:54.658Z,98430.19
2023-05-16T09:53:35.089Z,98435.97
2023-05-16T09:56:15.017Z,98433.50
2023-05-16T09:58:45.381Z,98437.72
2023-05-16T10:01:13.639Z,98437.94
2023-05-16T10:03:43.907Z,98425.19
2023-05-16T10:06:12.740Z,98434.03
2023-05-16T10:08:44.342Z,98432.97
2023-05-16T10:11:12.436Z,98438.63
2023-05-16T10:13:43.127Z,98440.38
2023-05-16T10:16:14.206Z,98440.00
2023-05-16T10:18:42.831Z,98432.66
2023-05-16T10:21:19.318Z,98428.25
2023-05-16T10:23:51.829Z,98413.75
2023-05-16T10:26:22.029Z,98434.03
2023-05-16T10:28:50.857Z,98440.69
2023-05-16T10:31:18.625Z,98433.47
2023-05-16T10:33:47.526Z,98431.03
2023-05-16T10:36:16.811Z,98424.22
2023-05-16T10:38:46.736Z,98428.63
2023-05-16T10:41:14.453Z,98437.97
2023-05-16T10:43:56.108Z,98433.09
2023-05-16T10:46:25.314Z,98431.59
2023-05-16T10:48:54.746Z,98435.84
2023-05-16T10:51:23.204Z,98437.91
2023-05-16T10:53:55.200Z,98434.97
2023-05-16T10:56:28.781Z,98443.28
2023-05-16T10:58:57.067Z,98447.44
2023-05-16T11:01:35.858Z,98446.72
2023-05-16T11:04:11.464Z,98441.38
2023-05-16T11:06:52.493Z,98431.19
2023-05-16T11:09:25.622Z,98438.81
2023-05-16T11:11:55.788Z,98445.88
2023-05-16T11:14:34.728Z,98445.31
2023-05-16T11:17:22.910Z,98444.19
2023-05-16T11:19:59.944Z,98440.97
2023-05-16T11:22:30.476Z,98435.25
2023-05-16T11:25:11.030Z,98442.88
2023-05-16T11:27:48.046Z,98455.94
2023-05-16T11:30:19.627Z,98453.56
2023-05-16T11:32:49.249Z,98449.41
2023-05-16T11:35:18.999Z,98449.97
2023-05-16T11:37:48.226Z,98450.06
2023-05-16T11:40:17.355Z,98447.78
2023-05-16T11:42:48.149Z,98453.38
2023-05-16T11:45:24.732Z,98453.66
2023-05-16T11:47:52.877Z,98458.78
2023-05-16T11:50:26.609Z,98442.03
2023-05-16T11:52:57.263Z,98474.09
2023-05-16T11:55:41.488Z,98468.53
2023-05-16T11:58:10.813Z,98476.28
2023-05-16T12:00:47.663Z,98479.53
2023-05-16T12:03:15.495Z,98467.09
2023-05-16T12:05:56.966Z,98467.06
2023-05-16T12:08:25.335Z,98484.22
2023-05-16T12:10:53.942Z,98475.75
2023-05-16T12:13:25.215Z,98470.50
2023-05-16T12:15:53.202Z,98476.47
2023-05-16T12:18:24.229Z,98484.84
2023-05-16T12:20:52.543Z,98472.53
2023-05-16T12:23:20.055Z,98480.38
2023-05-16T12:25:49.546Z,98473.47
2023-05-16T12:28:17.419Z,98482.13
2023-05-16T12:30:48.179Z,98484.47
2023-05-16T12:33:17.531Z,98486.16
2023-05-16T12:35:47.389Z,98486.78
2023-05-16T12:38:17.817Z,98491.91
2023-05-16T12:40:46.282Z,98495.22
2023-05-16T12:43:21.730Z,98494.06
2023-05-16T12:45:58.535Z,98495.44
2023-05-16T12:48:35.838Z,98496.50
2023-05-16T12:51:18.816Z,98489.03
2023-05-16T13:04:52.859Z,98511.00
2023-05-16T13:07:20.288Z,98505.66
2023-05-16T13:27:55.798Z,98526.38
2023-05-16T13:43:05.762Z,98524.41
2023-05-16T13:45:33.728Z,98532.41
2023-05-16T13:52:01.743Z,98519.72
2023-05-16T13:54:29.208Z,98531.75
2023-05-16T13:56:57.698Z,98529.31
2023-05-16T13:59:44.896Z,98526.22
2023-05-16T14:02:13.354Z,98545.81
2023-05-16T14:04:41.139Z,98543.06
2023-05-16T14:07:08.606Z,98538.66
2023-05-16T14:09:39.333Z,98542.25
2023-05-16T14:12:10.276Z,98539.63
2023-05-16T14:14:38.629Z,98552.69
2023-05-16T14:17:06.875Z,98547.84
2023-05-16T14:19:34.698Z,98553.84
2023-05-16T14:22:02.879Z,98540.75
2023-05-16T14:24:30.335Z,98550.31
2023-05-16T14:33:37.070Z,98557.66
2023-05-16T14:36:08.408Z,98551.97
2023-05-16T14:38:36.368Z,98561.44
2023-05-16T14:48:51.250Z,98582.31
2023-05-16T14:51:18.757Z,98582.06
2023-05-16T15:01:54.039Z,98580.63
2023-05-16T15:13:46.917Z,98584.75
2023-05-16T15:27:24.549Z,98597.03
2023-05-16T17:06:23.473Z,98684.16
2023-05-16T17:30:51.141Z,98682.88
2023-05-16T17:54:24.146Z,98695.13
2023-05-16T18:15:51.251Z,98697.63
2023-05-16T18:28:59.248Z,98701.63
